sensor_id;sensor_type;location;lat;lon;timestamp;pressure;altitude;pressure_sealevel;temperature;humidity
68758;BME280;55747;51.998;4.466;2022-09-24T00:00:20;56506.78;;;-144.48;97.06
68758;BME280;55747;51.998;4.466;2022-09-24T00:02:45;56508.84;;;-144.48;96.99
68758;BME280;55747;51.998;4.466;2022-09-24T00:05:10;56469.56;;;-144.48;96.95
68758;BME280;55747;51.998;4.466;2022-09-24T00:07:35;56477.84;;;-144.48;96.79
68758;BME280;55747;51.998;4.466;2022-09-24T00:10:01;56508.84;;;-144.48;96.74
68758;BME280;55747;51.998;4.466;2022-09-24T00:12:26;56484.06;;;-144.48;96.74
68758;BME280;55747;51.998;4.466;2022-09-24T00:14:52;56440.63;;;-144.48;96.69
68758;BME280;55747;51.998;4.466;2022-09-24T00:17:18;56492.31;;;-144.48;96.75
68758;BME280;55747;51.998;4.466;2022-09-24T00:19:43;56484.06;;;-144.48;96.75
68758;BME280;55747;51.998;4.466;2022-09-24T00:22:08;56517.13;;;-144.48;96.66
68758;BME280;55747;51.998;4.466;2022-09-24T00:24:34;56504.72;;;-144.48;96.79
68758;BME280;55747;51.998;4.466;2022-09-24T00:27:18;56500.59;;;-144.48;96.80
68758;BME280;55747;51.998;4.466;2022-09-24T00:29:43;56502.66;;;-144.48;96.73
68758;BME280;55747;51.998;4.466;2022-09-24T00:32:08;56486.13;;;-144.48;96.81
68758;BME280;55747;51.998;4.466;2022-09-24T00:34:34;56494.38;;;-144.48;96.82
68758;BME280;55747;51.998;4.466;2022-09-24T00:37:02;56471.66;;;-144.48;96.91
68758;BME280;55747;51.998;4.466;2022-09-24T00:39:28;56492.31;;;-144.48;96.69
68758;BME280;55747;51.998;4.466;2022-09-24T00:41:53;56533.66;;;-144.48;96.68
68758;BME280;55747;51.998;4.466;2022-09-24T00:47:05;56473.72;;;-144.48;96.61
68758;BME280;55747;51.998;4.466;2022-09-24T00:49:35;56494.38;;;-144.48;96.58
68758;BME280;55747;51.998;4.466;2022-09-24T00:52:01;56508.84;;;-144.48;96.62
68758;BME280;55747;51.998;4.466;2022-09-24T00:54:27;56506.78;;;-144.48;96.61
68758;BME280;55747;51.998;4.466;2022-09-24T00:56:54;56506.78;;;-144.48;96.56
68758;BME280;55747;51.998;4.466;2022-09-24T00:59:22;56498.53;;;-144.48;96.58
68758;BME280;55747;51.998;4.466;2022-09-24T01:01:50;56531.59;;;-144.48;96.50
68758;BME280;55747;51.998;4.466;2022-09-24T01:04:19;56525.41;;;-144.48;96.54
68758;BME280;55747;51.998;4.466;2022-09-24T01:06:46;56492.31;;;-144.48;96.38
68758;BME280;55747;51.998;4.466;2022-09-24T01:09:12;56533.66;;;-144.48;96.45
68758;BME280;55747;51.998;4.466;2022-09-24T01:11:49;56508.84;;;-144.48;96.45
68758;BME280;55747;51.998;4.466;2022-09-24T01:24:55;56506.78;;;-144.48;96.44
68758;BME280;55747;51.998;4.466;2022-09-24T01:28:06;56515.06;;;-144.48;96.46
68758;BME280;55747;51.998;4.466;2022-09-24T01:30:36;56494.38;;;-144.48;96.34
68758;BME280;55747;51.998;4.466;2022-09-24T01:33:07;56510.94;;;-144.48;96.22
68758;BME280;55747;51.998;4.466;2022-09-24T01:35:52;56502.66;;;-144.48;96.20
68758;BME280;55747;51.998;4.466;2022-09-24T01:38:27;56490.25;;;-144.48;96.31
68758;BME280;55747;51.998;4.466;2022-09-24T01:40:55;56539.88;;;-144.48;96.07
68758;BME280;55747;51.998;4.466;2022-09-24T01:43:26;56494.38;;;-144.48;96.07
68758;BME280;55747;51.998;4.466;2022-09-24T01:45:53;56517.13;;;-144.48;96.13
68758;BME280;55747;51.998;4.466;2022-09-24T01:48:26;56529.53;;;-144.48;96.03
68758;BME280;55747;51.998;4.466;2022-09-24T01:53:53;56508.84;;;-144.48;95.87
68758;BME280;55747;51.998;4.466;2022-09-24T01:56:28;56513.00;;;-144.48;95.89
68758;BME280;55747;51.998;4.466;2022-09-24T01:59:03;56506.78;;;-144.48;95.89
68758;BME280;55747;51.998;4.466;2022-09-24T02:01:42;56490.25;;;-144.48;95.77
68758;BME280;55747;51.998;4.466;2022-09-24T02:04:13;56490.25;;;-144.48;95.75
68758;BME280;55747;51.998;4.466;2022-09-24T02:06:49;56521.25;;;-144.48;95.83
68758;BME280;55747;51.998;4.466;2022-09-24T02:09:31;56504.72;;;-144.48;95.62
68758;BME280;55747;51.998;4.466;2022-09-24T02:12:51;56506.78;;;-144.48;95.54
68758;BME280;55747;51.998;4.466;2022-09-24T02:15:12;56469.56;;;-144.48;95.55
68758;BME280;55747;51.998;4.466;2022-09-24T02:17:40;56554.34;;;-144.48;95.57
68758;BME280;55747;51.998;4.466;2022-09-24T02:20:12;56502.66;;;-144.48;95.62
68758;BME280;55747;51.998;4.466;2022-09-24T02:22:40;56523.34;;;-144.48;95.62
68758;BME280;55747;51.998;4.466;2022-09-24T02:25:09;56558.47;;;-144.48;95.67
68758;BME280;55747;51.998;4.466;2022-09-24T02:27:37;56521.25;;;-144.48;95.74
68758;BME280;55747;51.998;4.466;2022-09-24T02:30:04;56521.25;;;-144.48;95.75
68758;BME280;55747;51.998;4.466;2022-09-24T02:32:33;56510.94;;;-144.48;95.83
68758;BME280;55747;51.998;4.466;2022-09-24T02:35:04;56442.69;;;-144.48;95.74
68758;BME280;55747;51.998;4.466;2022-09-24T02:37:35;56515.06;;;-144.48;96.03
68758;BME280;55747;51.998;4.466;2022-09-24T02:40:02;56517.13;;;-144.48;95.91
68758;BME280;55747;51.998;4.466;2022-09-24T02:42:28;56498.53;;;-144.48;95.85
68758;BME280;55747;51.998;4.466;2022-09-24T02:44:55;56510.94;;;-144.48;95.88
68758;BME280;55747;51.998;4.466;2022-09-24T02:47:23;56515.06;;;-144.48;96.03
68758;BME280;55747;51.998;4.466;2022-09-24T02:49:49;56531.59;;;-144.48;96.03
68758;BME280;55747;51.998;4.466;2022-09-24T02:52:14;56504.72;;;-144.48;96.13
68758;BME280;55747;51.998;4.466;2022-09-24T02:54:39;56521.25;;;-144.48;96.02
68758;BME280;55747;51.998;4.466;2022-09-24T02:57:05;56488.19;;;-144.48;96.02
68758;BME280;55747;51.998;4.466;2022-09-24T02:59:30;56504.72;;;-144.48;95.98
68758;BME280;55747;51.998;4.466;2022-09-24T03:01:56;56484.06;;;-144.48;96.11
68758;BME280;55747;51.998;4.466;2022-09-24T03:04:21;56541.94;;;-144.48;96.14
68758;BME280;55747;51.998;4.466;2022-09-24T03:06:47;56504.72;;;-144.48;96.30
68758;BME280;55747;51.998;4.466;2022-09-24T03:09:12;56529.53;;;-144.48;96.21
68758;BME280;55747;51.998;4.466;2022-09-24T03:11:38;56504.72;;;-144.48;96.34
68758;BME280;55747;51.998;4.466;2022-09-24T03:14:03;56529.53;;;-144.48;96.68
68758;BME280;55747;51.998;4.466;2022-09-24T03:16:28;56513.00;;;-144.48;96.46
68758;BME280;55747;51.998;4.466;2022-09-24T03:18:54;56508.84;;;-144.48;96.53
68758;BME280;55747;51.998;4.466;2022-09-24T03:21:20;56513.00;;;-144.48;96.61
68758;BME280;55747;51.998;4.466;2022-09-24T03:23:46;56490.25;;;-144.48;96.57
68758;BME280;55747;51.998;4.466;2022-09-24T03:26:12;56510.94;;;-144.48;96.52
68758;BME280;55747;51.998;4.466;2022-09-24T03:28:37;56519.19;;;-144.48;96.58
68758;BME280;55747;51.998;4.466;2022-09-24T03:31:03;56529.53;;;-144.48;96.54
68758;BME280;55747;51.998;4.466;2022-09-24T03:36:14;56556.41;;;-144.48;96.61
68758;BME280;55747;51.998;4.466;2022-09-24T03:38:41;56500.59;;;-144.48;96.74
68758;BME280;55747;51.998;4.466;2022-09-24T03:41:08;56535.75;;;-144.48;96.72
68758;BME280;55747;51.998;4.466;2022-09-24T03:43:34;56527.47;;;-144.48;96.90
68758;BME280;55747;51.998;4.466;2022-09-24T03:45:59;56515.06;;;-144.48;96.87
68758;BME280;55747;51.998;4.466;2022-09-24T03:48:25;56502.66;;;-144.48;96.82
68758;BME280;55747;51.998;4.466;2022-09-24T03:50:52;56494.38;;;-144.48;96.88
68758;BME280;55747;51.998;4.466;2022-09-24T03:53:17;56502.66;;;-144.48;96.82
68758;BME280;55747;51.998;4.466;2022-09-24T03:55:45;56506.78;;;-144.48;96.81
68758;BME280;55747;51.998;4.466;2022-09-24T03:58:11;56529.53;;;-144.48;96.82
68758;BME280;55747;51.998;4.466;2022-09-24T04:00:37;56521.25;;;-144.48;96.81
68758;BME280;55747;51.998;4.466;2022-09-24T04:03:02;56541.94;;;-144.48;96.64
68758;BME280;55747;51.998;4.466;2022-09-24T04:05:28;56521.25;;;-144.48;96.69
68758;BME280;55747;51.998;4.466;2022-09-24T04:07:55;56508.84;;;-144.48;96.66
68758;BME280;55747;51.998;4.466;2022-09-24T04:10:20;56523.34;;;-144.48;96.55
68758;BME280;55747;51.998;4.466;2022-09-24T04:12:47;56541.94;;;-144.48;96.62
68758;BME280;55747;51.998;4.466;2022-09-24T04:15:12;56519.19;;;-144.48;96.68
68758;BME280;55747;51.998;4.466;2022-09-24T04:17:40;56533.66;;;-144.48;96.50
68758;BME280;55747;51.998;4.466;2022-09-24T04:20:06;56477.84;;;-144.48;96.50
68758;BME280;55747;51.998;4.466;2022-09-24T04:22:33;56523.34;;;-144.48;96.49
68758;BME280;55747;51.998;4.466;2022-09-24T04:24:58;56506.78;;;-144.48;96.47
68758;BME280;55747;51.998;4.466;2022-09-24T04:27:24;56494.38;;;-144.48;96.34
68758;BME280;55747;51.998;4.466;2022-09-24T04:29:50;56531.59;;;-144.48;96.22
68758;BME280;55747;51.998;4.466;2022-09-24T04:32:15;56513.00;;;-144.48;96.32
68758;BME280;55747;51.998;4.466;2022-09-24T04:34:40;56525.41;;;-144.48;96.30
68758;BME280;55747;51.998;4.466;2022-09-24T04:37:05;56527.47;;;-144.48;96.40
68758;BME280;55747;51.998;4.466;2022-09-24T04:39:31;56531.59;;;-144.48;96.41
68758;BME280;55747;51.998;4.466;2022-09-24T04:41:56;56552.28;;;-144.48;96.46
68758;BME280;55747;51.998;4.466;2022-09-24T04:44:24;56537.81;;;-144.48;96.49
68758;BME280;55747;51.998;4.466;2022-09-24T04:46:49;56533.66;;;-144.48;96.45
68758;BME280;55747;51.998;4.466;2022-09-24T04:49:15;56531.59;;;-144.48;96.42
68758;BME280;55747;51.998;4.466;2022-09-24T04:51:40;56568.81;;;-144.48;96.56
68758;BME280;55747;51.998;4.466;2022-09-24T04:54:05;56533.66;;;-144.48;96.40
68758;BME280;55747;51.998;4.466;2022-09-24T04:56:31;56515.06;;;-144.48;96.15
68758;BME280;55747;51.998;4.466;2022-09-24T04:58:57;56519.19;;;-144.48;96.40
68758;BME280;55747;51.998;4.466;2022-09-24T05:01:25;56537.81;;;-144.48;96.37
68758;BME280;55747;51.998;4.466;2022-09-24T05:03:51;56541.94;;;-144.48;96.37
68758;BME280;55747;51.998;4.466;2022-09-24T05:06:17;56529.53;;;-144.48;96.47
68758;BME280;55747;51.998;4.466;2022-09-24T05:08:43;56508.84;;;-144.48;96.49
68758;BME280;55747;51.998;4.466;2022-09-24T05:11:08;56550.22;;;-144.48;96.58
68758;BME280;55747;51.998;4.466;2022-09-24T05:13:33;56510.94;;;-144.48;96.63
68758;BME280;55747;51.998;4.466;2022-09-24T05:16:00;56562.63;;;-144.48;96.77
68758;BME280;55747;51.998;4.466;2022-09-24T05:18:26;56550.22;;;-144.48;96.77
68758;BME280;55747;51.998;4.466;2022-09-24T05:20:52;56529.53;;;-144.48;96.90
68758;BME280;55747;51.998;4.466;2022-09-24T05:23:17;56508.84;;;-144.48;96.85
68758;BME280;55747;51.998;4.466;2022-09-24T05:25:42;56525.41;;;-144.48;96.98
68758;BME280;55747;51.998;4.466;2022-09-24T05:28:26;56560.53;;;-144.48;97.17
68758;BME280;55747;51.998;4.466;2022-09-24T05:30:58;56548.13;;;-144.48;97.34
68758;BME280;55747;51.998;4.466;2022-09-24T05:33:24;56523.34;;;-144.48;97.41
68758;BME280;55747;51.998;4.466;2022-09-24T05:35:56;56510.94;;;-144.48;97.44
68758;BME280;55747;51.998;4.466;2022-09-24T05:38:22;56548.13;;;-144.48;97.70
68758;BME280;55747;51.998;4.466;2022-09-24T05:40:49;56550.22;;;-144.48;97.78
68758;BME280;55747;51.998;4.466;2022-09-24T05:43:16;56527.47;;;-144.48;97.88
68758;BME280;55747;51.998;4.466;2022-09-24T05:45:44;56537.81;;;-144.48;97.81
68758;BME280;55747;51.998;4.466;2022-09-24T05:48:09;56533.66;;;-144.48;97.74
68758;BME280;55747;51.998;4.466;2022-09-24T05:50:35;56531.59;;;-144.48;97.57
68758;BME280;55747;51.998;4.466;2022-09-24T05:53:01;56554.34;;;-144.48;97.51
68758;BME280;55747;51.998;4.466;2022-09-24T05:55:26;56535.75;;;-144.48;97.23
68758;BME280;55747;51.998;4.466;2022-09-24T05:57:52;56533.66;;;-144.48;96.85
68758;BME280;55747;51.998;4.466;2022-09-24T06:00:18;56529.53;;;-144.48;96.18
68758;BME280;55747;51.998;4.466;2022-09-24T06:02:43;56517.13;;;-144.48;95.29
68758;BME280;55747;51.998;4.466;2022-09-24T06:05:09;56515.06;;;-144.48;94.48
68758;BME280;55747;51.998;4.466;2022-09-24T06:07:34;56527.47;;;-144.48;93.60
68758;BME280;55747;51.998;4.466;2022-09-24T06:09:59;56544.00;;;-144.48;92.97
68758;BME280;55747;51.998;4.466;2022-09-24T06:12:25;56504.72;;;-144.48;92.31
68758;BME280;55747;51.998;4.466;2022-09-24T06:14:51;56558.47;;;-144.48;92.17
68758;BME280;55747;51.998;4.466;2022-09-24T06:17:18;56546.06;;;-144.48;91.85
68758;BME280;55747;51.998;4.466;2022-09-24T06:19:44;56560.53;;;-144.48;91.78
68758;BME280;55747;51.998;4.466;2022-09-24T06:22:11;56525.41;;;-144.48;91.80
68758;BME280;55747;51.998;4.466;2022-09-24T06:24:36;56535.75;;;-144.48;92.00
68758;BME280;55747;51.998;4.466;2022-09-24T06:27:01;56562.63;;;-144.48;92.20
68758;BME280;55747;51.998;4.466;2022-09-24T06:29:27;56515.06;;;-144.48;92.33
68758;BME280;55747;51.998;4.466;2022-09-24T06:31:55;56537.81;;;-144.48;92.66
68758;BME280;55747;51.998;4.466;2022-09-24T06:34:20;56552.28;;;-144.48;92.96
68758;BME280;55747;51.998;4.466;2022-09-24T06:36:46;56535.75;;;-144.48;93.22
68758;BME280;55747;51.998;4.466;2022-09-24T06:39:11;56525.41;;;-144.48;93.39
68758;BME280;55747;51.998;4.466;2022-09-24T06:41:37;56541.94;;;-144.48;93.36
68758;BME280;55747;51.998;4.466;2022-09-24T06:44:02;56548.13;;;-144.48;93.46
68758;BME280;55747;51.998;4.466;2022-09-24T06:46:27;56568.81;;;-144.48;93.66
68758;BME280;55747;51.998;4.466;2022-09-24T06:48:53;56552.28;;;-144.48;93.70
68758;BME280;55747;51.998;4.466;2022-09-24T06:51:19;56558.47;;;-144.48;93.71
68758;BME280;55747;51.998;4.466;2022-09-24T06:53:45;56539.88;;;-144.48;93.61
68758;BME280;55747;51.998;4.466;2022-09-24T06:56:10;56533.66;;;-144.48;93.65
68758;BME280;55747;51.998;4.466;2022-09-24T06:58:35;56552.28;;;-144.48;93.89
68758;BME280;55747;51.998;4.466;2022-09-24T07:01:01;56535.75;;;-144.48;93.94
68758;BME280;55747;51.998;4.466;2022-09-24T07:03:29;56508.84;;;-144.48;94.01
68758;BME280;55747;51.998;4.466;2022-09-24T07:05:58;56537.81;;;-144.48;94.02
68758;BME280;55747;51.998;4.466;2022-09-24T07:08:24;56508.84;;;-144.48;94.11
68758;BME280;55747;51.998;4.466;2022-09-24T07:10:49;56521.25;;;-144.48;93.97
68758;BME280;55747;51.998;4.466;2022-09-24T07:13:17;56562.63;;;-144.48;93.70
68758;BME280;55747;51.998;4.466;2022-09-24T07:15:43;56533.66;;;-144.48;93.52
68758;BME280;55747;51.998;4.466;2022-09-24T07:18:09;56508.84;;;-144.48;93.46
68758;BME280;55747;51.998;4.466;2022-09-24T07:20:34;56546.06;;;-144.48;93.21
68758;BME280;55747;51.998;4.466;2022-09-24T07:23:04;56541.94;;;-144.48;93.19
68758;BME280;55747;51.998;4.466;2022-09-24T07:25:29;56554.34;;;-144.48;93.28
68758;BME280;55747;51.998;4.466;2022-09-24T07:27:54;56517.13;;;-144.48;93.40
68758;BME280;55747;51.998;4.466;2022-09-24T07:30:20;56537.81;;;-144.48;93.67
68758;BME280;55747;51.998;4.466;2022-09-24T07:32:45;56550.22;;;-144.48;93.96
68758;BME280;55747;51.998;4.466;2022-09-24T07:35:11;56546.06;;;-144.48;94.14
68758;BME280;55747;51.998;4.466;2022-09-24T07:37:36;56541.94;;;-144.48;94.33
68758;BME280;55747;51.998;4.466;2022-09-24T07:40:01;56541.94;;;-144.48;94.68
68758;BME280;55747;51.998;4.466;2022-09-24T07:42:27;56546.06;;;-144.48;94.63
68758;BME280;55747;51.998;4.466;2022-09-24T07:44:55;56546.06;;;-144.48;95.02
68758;BME280;55747;51.998;4.466;2022-09-24T07:47:21;56558.47;;;-144.48;95.25
68758;BME280;55747;51.998;4.466;2022-09-24T07:49:47;56550.22;;;-144.48;95.41
68758;BME280;55747;51.998;4.466;2022-09-24T07:52:12;56554.34;;;-144.48;95.48
68758;BME280;55747;51.998;4.466;2022-09-24T07:54:37;56537.81;;;-144.48;95.65
68758;BME280;55747;51.998;4.466;2022-09-24T07:57:09;56539.88;;;-144.48;95.83
68758;BME280;55747;51.998;4.466;2022-09-24T07:59:37;56566.75;;;-144.48;95.88
68758;BME280;55747;51.998;4.466;2022-09-24T08:02:02;56539.88;;;-144.48;95.93
68758;BME280;55747;51.998;4.466;2022-09-24T08:04:27;56558.47;;;-144.48;96.07
68758;BME280;55747;51.998;4.466;2022-09-24T08:06:53;56554.34;;;-144.48;96.04
68758;BME280;55747;51.998;4.466;2022-09-24T08:09:18;56525.41;;;-144.48;96.10
68758;BME280;55747;51.998;4.466;2022-09-24T08:11:44;56564.69;;;-144.48;96.14
68758;BME280;55747;51.998;4.466;2022-09-24T08:14:09;56572.94;;;-144.48;96.05
68758;BME280;55747;51.998;4.466;2022-09-24T08:16:34;56560.53;;;-144.48;96.05
68758;BME280;55747;51.998;4.466;2022-09-24T08:19:00;56560.53;;;-144.48;95.94
68758;BME280;55747;51.998;4.466;2022-09-24T08:21:25;56560.53;;;-144.48;95.93
68758;BME280;55747;51.998;4.466;2022-09-24T08:23:54;56529.53;;;-144.48;95.83
68758;BME280;55747;51.998;4.466;2022-09-24T08:26:20;56531.59;;;-144.48;95.57
68758;BME280;55747;51.998;4.466;2022-09-24T08:28:48;56531.59;;;-144.48;94.79
68758;BME280;55747;51.998;4.466;2022-09-24T08:31:13;56546.06;;;-144.48;93.91
68758;BME280;55747;51.998;4.466;2022-09-24T08:33:39;56583.28;;;-144.48;92.74
68758;BME280;55747;51.998;4.466;2022-09-24T08:36:07;56552.28;;;-144.48;91.61
68758;BME280;55747;51.998;4.466;2022-09-24T08:38:33;56531.59;;;-144.48;90.23
68758;BME280;55747;51.998;4.466;2022-09-24T08:49:28;56548.13;;;-144.48;86.56
68758;BME280;55747;51.998;4.466;2022-09-24T08:52:29;56531.59;;;-144.48;85.92
68758;BME280;55747;51.998;4.466;2022-09-24T08:55:05;56539.88;;;-144.48;85.82
68758;BME280;55747;51.998;4.466;2022-09-24T08:57:37;56533.66;;;-144.48;85.77
68758;BME280;55747;51.998;4.466;2022-09-24T09:00:04;56531.59;;;-144.48;84.49
68758;BME280;55747;51.998;4.466;2022-09-24T09:08:30;56541.94;;;-144.48;81.68
68758;BME280;55747;51.998;4.466;2022-09-24T09:11:01;56529.53;;;-144.48;81.43
68758;BME280;55747;51.998;4.466;2022-09-24T09:13:51;56506.78;;;-144.48;81.65
68758;BME280;55747;51.998;4.466;2022-09-24T09:16:25;56548.13;;;-144.48;81.60
68758;BME280;55747;51.998;4.466;2022-09-24T09:18:56;56517.13;;;-144.48;80.70
68758;BME280;55747;51.998;4.466;2022-09-24T09:21:56;56535.75;;;-144.48;79.92
68758;BME280;55747;51.998;4.466;2022-09-24T09:24:38;56546.06;;;-144.48;79.45
68758;BME280;55747;51.998;4.466;2022-09-24T09:27:11;56575.03;;;-144.48;77.96
68758;BME280;55747;51.998;4.466;2022-09-24T09:29:40;56531.59;;;-144.48;78.84
68758;BME280;55747;51.998;4.466;2022-09-24T09:40:20;56539.88;;;-144.48;76.35
68758;BME280;55747;51.998;4.466;2022-09-24T09:42:48;56556.41;;;-144.48;76.05
68758;BME280;55747;51.998;4.466;2022-09-24T09:47:57;56570.88;;;-144.48;75.95
68758;BME280;55747;51.998;4.466;2022-09-24T09:50:27;56541.94;;;-144.48;75.51
68758;BME280;55747;51.998;4.466;2022-09-24T09:52:54;56527.47;;;-144.48;75.39
68758;BME280;55747;51.998;4.466;2022-09-24T09:55:32;56529.53;;;-144.48;75.40
68758;BME280;55747;51.998;4.466;2022-09-24T10:00:39;56521.25;;;-144.48;75.15
68758;BME280;55747;51.998;4.466;2022-09-24T10:03:05;56494.38;;;-144.48;74.66
68758;BME280;55747;51.998;4.466;2022-09-24T10:05:31;56521.25;;;-144.48;74.83
68758;BME280;55747;51.998;4.466;2022-09-24T10:07:57;56535.75;;;-144.48;75.78
68758;BME280;55747;51.998;4.466;2022-09-24T10:10:25;56525.41;;;-144.48;74.82
68758;BME280;55747;51.998;4.466;2022-09-24T10:13:13;56539.88;;;-144.48;74.52
68758;BME280;55747;51.998;4.466;2022-09-24T10:15:52;56531.59;;;-144.48;74.31
68758;BME280;55747;51.998;4.466;2022-09-24T10:18:45;56537.81;;;-144.48;74.48
68758;BME280;55747;51.998;4.466;2022-09-24T10:21:14;56529.53;;;-144.48;72.58
68758;BME280;55747;51.998;4.466;2022-09-24T10:23:49;56531.59;;;-144.48;71.81
68758;BME280;55747;51.998;4.466;2022-09-24T10:26:15;56554.34;;;-144.48;71.78
68758;BME280;55747;51.998;4.466;2022-09-24T10:28:48;56554.34;;;-144.48;70.72
68758;BME280;55747;51.998;4.466;2022-09-24T10:31:36;56517.13;;;-144.48;70.48
68758;BME280;55747;51.998;4.466;2022-09-24T10:34:04;56544.00;;;-144.48;70.39
68758;BME280;55747;51.998;4.466;2022-09-24T10:36:49;56560.53;;;-144.48;70.35
68758;BME280;55747;51.998;4.466;2022-09-24T10:39:15;56552.28;;;-144.48;70.31
68758;BME280;55747;51.998;4.466;2022-09-24T10:41:48;56531.59;;;-144.48;69.71
68758;BME280;55747;51.998;4.466;2022-09-24T10:44:14;56523.34;;;-144.48;69.19
68758;BME280;55747;51.998;4.466;2022-09-24T11:00:20;56535.75;;;-144.48;64.75
68758;BME280;55747;51.998;4.466;2022-09-24T11:05:21;56554.34;;;-144.48;64.89
68758;BME280;55747;51.998;4.466;2022-09-24T11:11:05;56494.38;;;-144.48;65.22
68758;BME280;55747;51.998;4.466;2022-09-24T11:13:47;56550.22;;;-144.48;65.30
68758;BME280;55747;51.998;4.466;2022-09-24T11:19:25;56527.47;;;-144.48;64.85
68758;BME280;55747;51.998;4.466;2022-09-24T11:22:19;56510.94;;;-144.48;65.17
68758;BME280;55747;51.998;4.466;2022-09-24T11:30:50;56502.66;;;-144.48;64.37
68758;BME280;55747;51.998;4.466;2022-09-24T11:33:35;56504.72;;;-144.48;64.57
68758;BME280;55747;51.998;4.466;2022-09-24T11:58:03;56490.25;;;-144.48;60.69
68758;BME280;55747;51.998;4.466;2022-09-24T12:00:36;56500.59;;;-144.48;60.64
68758;BME280;55747;51.998;4.466;2022-09-24T12:03:20;56504.72;;;-144.48;60.78
68758;BME280;55747;51.998;4.466;2022-09-24T12:05:52;56510.94;;;-144.48;61.09
68758;BME280;55747;51.998;4.466;2022-09-24T12:08:40;56529.53;;;-144.48;60.86
68758;BME280;55747;51.998;4.466;2022-09-24T12:11:21;56498.53;;;-144.48;61.87
68758;BME280;55747;51.998;4.466;2022-09-24T12:13:52;56519.19;;;-144.48;61.98
68758;BME280;55747;51.998;4.466;2022-09-24T12:16:25;56502.66;;;-144.48;61.96
68758;BME280;55747;51.998;4.466;2022-09-24T12:21:20;56481.97;;;-144.48;63.65
68758;BME280;55747;51.998;4.466;2022-09-24T12:23:49;56500.59;;;-144.48;63.67
68758;BME280;55747;51.998;4.466;2022-09-24T12:26:18;56492.31;;;-144.48;64.45
68758;BME280;55747;51.998;4.466;2022-09-24T12:37:20;56521.25;;;-144.48;68.64
68758;BME280;55747;51.998;4.466;2022-09-24T12:40:02;56508.84;;;-144.48;68.26
68758;BME280;55747;51.998;4.466;2022-09-24T12:42:39;56504.72;;;-144.48;67.44
68758;BME280;55747;51.998;4.466;2022-09-24T12:45:13;56552.28;;;-144.48;67.46
68758;BME280;55747;51.998;4.466;2022-09-24T12:47:47;56477.84;;;-144.48;66.41
68758;BME280;55747;51.998;4.466;2022-09-24T12:50:22;56496.44;;;-144.48;65.86
68758;BME280;55747;51.998;4.466;2022-09-24T12:52:49;56525.41;;;-144.48;65.42
68758;BME280;55747;51.998;4.466;2022-09-24T12:55:22;56529.53;;;-144.48;66.33
68758;BME280;55747;51.998;4.466;2022-09-24T12:57:52;56479.91;;;-144.48;64.65
68758;BME280;55747;51.998;4.466;2022-09-24T13:03:04;56481.97;;;-144.48;64.19
68758;BME280;55747;51.998;4.466;2022-09-24T13:08:22;56486.13;;;-144.48;63.95
68758;BME280;55747;51.998;4.466;2022-09-24T13:13:27;56486.13;;;-144.48;62.50
68758;BME280;55747;51.998;4.466;2022-09-24T13:16:17;56496.44;;;-144.48;62.18
68758;BME280;55747;51.998;4.466;2022-09-24T13:18:51;56515.06;;;-144.48;61.30
68758;BME280;55747;51.998;4.466;2022-09-24T13:21:21;56494.38;;;-144.48;61.77
68758;BME280;55747;51.998;4.466;2022-09-24T13:23:49;56498.53;;;-144.48;61.17
68758;BME280;55747;51.998;4.466;2022-09-24T13:28:55;56529.53;;;-144.48;60.17
68758;BME280;55747;51.998;4.466;2022-09-24T13:36:40;56492.31;;;-144.48;59.88
68758;BME280;55747;51.998;4.466;2022-09-24T13:39:23;56469.56;;;-144.48;58.99
68758;BME280;55747;51.998;4.466;2022-09-24T13:44:36;56527.47;;;-144.48;57.94
68758;BME280;55747;51.998;4.466;2022-09-24T13:47:18;56475.78;;;-144.48;58.09
68758;BME280;55747;51.998;4.466;2022-09-24T13:49:49;56486.13;;;-144.48;58.11
68758;BME280;55747;51.998;4.466;2022-09-24T13:52:29;56510.94;;;-144.48;57.99
68758;BME280;55747;51.998;4.466;2022-09-24T13:55:00;56517.13;;;-144.48;56.97
68758;BME280;55747;51.998;4.466;2022-09-24T13:57:28;56504.72;;;-144.48;55.99
68758;BME280;55747;51.998;4.466;2022-09-24T14:00:12;56469.56;;;-144.48;55.18
68758;BME280;55747;51.998;4.466;2022-09-24T14:03:04;56473.72;;;-144.48;54.54
68758;BME280;55747;51.998;4.466;2022-09-24T14:05:29;56465.44;;;-144.48;54.99
68758;BME280;55747;51.998;4.466;2022-09-24T14:08:01;56475.78;;;-144.48;54.93
68758;BME280;55747;51.998;4.466;2022-09-24T14:10:29;56469.56;;;-144.48;55.63
68758;BME280;55747;51.998;4.466;2022-09-24T14:13:14;56490.25;;;-144.48;55.08
68758;BME280;55747;51.998;4.466;2022-09-24T14:15:56;56461.31;;;-144.48;54.79
68758;BME280;55747;51.998;4.466;2022-09-24T14:18:23;56463.38;;;-144.48;55.18
68758;BME280;55747;51.998;4.466;2022-09-24T14:20:56;56486.13;;;-144.48;55.05
68758;BME280;55747;51.998;4.466;2022-09-24T14:23:26;56477.84;;;-144.48;54.66
68758;BME280;55747;51.998;4.466;2022-09-24T14:25:54;56475.78;;;-144.48;54.63
68758;BME280;55747;51.998;4.466;2022-09-24T14:28:22;56481.97;;;-144.48;54.45
68758;BME280;55747;51.998;4.466;2022-09-24T14:30:51;56455.09;;;-144.48;54.38
68758;BME280;55747;51.998;4.466;2022-09-24T14:33:20;56459.25;;;-144.48;54.62
68758;BME280;55747;51.998;4.466;2022-09-24T14:35:48;56494.38;;;-144.48;54.06
68758;BME280;55747;51.998;4.466;2022-09-24T14:38:27;56467.50;;;-144.48;53.46
68758;BME280;55747;51.998;4.466;2022-09-24T14:40:59;56444.78;;;-144.48;53.06
68758;BME280;55747;51.998;4.466;2022-09-24T14:43:43;56475.78;;;-144.48;52.50
68758;BME280;55747;51.998;4.466;2022-09-24T14:46:20;56465.44;;;-144.48;52.39
68758;BME280;55747;51.998;4.466;2022-09-24T14:48:47;56500.59;;;-144.48;51.70
68758;BME280;55747;51.998;4.466;2022-09-24T14:51:27;56471.66;;;-144.48;50.49
68758;BME280;55747;51.998;4.466;2022-09-24T14:53:58;56479.91;;;-144.48;50.66
68758;BME280;55747;51.998;4.466;2022-09-24T14:56:30;56479.91;;;-144.48;50.41
68758;BME280;55747;51.998;4.466;2022-09-24T14:58:56;56448.91;;;-144.48;49.97